Savana De La Mar, Dominican Republic
Current Conditions -  °F | °C
As of 8:00 PM on Friday 31 Oct 2014 (Local Time) from MDCY Reporting Station
Light Rain Light Rain  
Wind Chill: 79°   Ceiling: 1600
Heat Index: 83°   Visibility: 5mi
Dew Point: 77°   Wind: 5mph
Humidity: 94%   Direction: 90°E
Pressure: 29.83"   Gusts: NA
Location:  19.05°N, 69.38°W
Report Text: MDCY 010000Z 09004KT 8000 -RA FEW016CB BKN016 SCT300 26/25 Q1010 CB/SW/W/NW
Loading
Personal Weather Stations






























Interactive Weather Map
Tropical Storm Tracking
New forecast layout! Learn more

10-Day Weather Forecast

Advertisements
Track Severe Weather on mobile